<?xml version="1.0" encoding="UTF-8"?>
<gpx xmlns="http://www.topografix.com/GPX/1/1" xmlns:xsi="http://www.w3.org/2001/XMLSchema-instance" version="1.1" xsi:schemaLocation="http://www.topografix.com/GPX/1/1 http://www.topografix.com/GPX/1/1/gpx.xsd">
  <metadata>
    <name>Secret City Sprint Triathlon 2023</name>
  </metadata>
  <trk>
    <name>Secret City Sprint Triathlon 2023</name>
    <trkseg>
      <trkpt lat="36.016171" lon="-84.264362">
        <ele>264.714316</ele>
        <time>2024-06-01T07:40:00.000Z</time>
      </trkpt>
      <trkpt lat="36.016085" lon="-84.264454">
        <ele>264.714305</ele>
        <time>2024-06-01T07:40:01.000Z</time>
      </trkpt>
      <trkpt lat="36.015911" lon="-84.264626">
        <ele>264.714313</ele>
        <time>2024-06-01T07:40:03.000Z</time>
      </trkpt>
      <trkpt lat="36.015714" lon="-84.264816">
        <ele>264.714309</ele>
        <time>2024-06-01T07:40:06.000Z</time>
      </trkpt>
      <trkpt lat="36.015176" lon="-84.265219">
        <ele>265.032772</ele>
        <time>2024-06-01T07:40:13.000Z</time>
      </trkpt>
      <trkpt lat="36.015312" lon="-84.265617">
        <ele>265.381125</ele>
        <time>2024-06-01T07:40:17.000Z</time>
      </trkpt>
      <trkpt lat="36.015406" lon="-84.265992">
        <ele>265.709779</ele>
        <time>2024-06-01T07:40:21.000Z</time>
      </trkpt>
      <trkpt lat="36.015423" lon="-84.26643">
        <ele>266.069699</ele>
        <time>2024-06-01T07:40:25.000Z</time>
      </trkpt>
      <trkpt lat="36.015391" lon="-84.267189">
        <ele>266.663405</ele>
        <time>2024-06-01T07:40:32.000Z</time>
      </trkpt>
      <trkpt lat="36.01535" lon="-84.267552">
        <ele>266.888581</ele>
        <time>2024-06-01T07:40:35.000Z</time>
      </trkpt>
      <trkpt lat="36.015253" lon="-84.267968">
        <ele>267.162543</ele>
        <time>2024-06-01T07:40:39.000Z</time>
      </trkpt>
      <trkpt lat="36.015101" lon="-84.268605">
        <ele>267.570177</ele>
        <time>2024-06-01T07:40:45.000Z</time>
      </trkpt>
      <trkpt lat="36.014816" lon="-84.269604">
        <ele>267.801368</ele>
        <time>2024-06-01T07:40:55.000Z</time>
      </trkpt>
      <trkpt lat="36.014717" lon="-84.269955">
        <ele>267.690838</ele>
        <time>2024-06-01T07:40:58.000Z</time>
      </trkpt>
      <trkpt lat="36.014609" lon="-84.270315">
        <ele>267.574768</ele>
        <time>2024-06-01T07:41:01.000Z</time>
      </trkpt>
      <trkpt lat="36.013866" lon="-84.272966">
        <ele>265.29943</ele>
        <time>2024-06-01T07:41:26.000Z</time>
      </trkpt>
      <trkpt lat="36.013468" lon="-84.274228">
        <ele>263.011122</ele>
        <time>2024-06-01T07:41:38.000Z</time>
      </trkpt>
      <trkpt lat="36.013142" lon="-84.275123">
        <ele>261.102863</ele>
        <time>2024-06-01T07:41:47.000Z</time>
      </trkpt>
      <trkpt lat="36.012953" lon="-84.275557">
        <ele>260.262755</ele>
        <time>2024-06-01T07:41:51.000Z</time>
      </trkpt>
      <trkpt lat="36.012487" lon="-84.276477">
        <ele>258.83947</ele>
        <time>2024-06-01T07:42:01.000Z</time>
      </trkpt>
      <trkpt lat="36.012292" lon="-84.276861">
        <ele>258.26328</ele>
        <time>2024-06-01T07:42:05.000Z</time>
      </trkpt>
      <trkpt lat="36.011659" lon="-84.277756">
        <ele>257.558865</ele>
        <time>2024-06-01T07:42:16.000Z</time>
      </trkpt>
      <trkpt lat="36.011458" lon="-84.27801">
        <ele>257.525655</ele>
        <time>2024-06-01T07:42:19.000Z</time>
      </trkpt>
      <trkpt lat="36.010954" lon="-84.278646">
        <ele>257.441797</ele>
        <time>2024-06-01T07:42:27.000Z</time>
      </trkpt>
      <trkpt lat="36.010576" lon="-84.279157">
        <ele>257.556849</ele>
        <time>2024-06-01T07:42:33.000Z</time>
      </trkpt>
      <trkpt lat="36.010416" lon="-84.27945">
        <ele>257.671315</ele>
        <time>2024-06-01T07:42:36.000Z</time>
      </trkpt>
      <trkpt lat="36.010276" lon="-84.279958">
        <ele>257.851055</ele>
        <time>2024-06-01T07:42:41.000Z</time>
      </trkpt>
      <trkpt lat="36.010123" lon="-84.280774">
        <ele>258.133978</ele>
        <time>2024-06-01T07:42:49.000Z</time>
      </trkpt>
      <trkpt lat="36.009961" lon="-84.281451">
        <ele>257.7354</ele>
        <time>2024-06-01T07:42:55.000Z</time>
      </trkpt>
      <trkpt lat="36.00979" lon="-84.281842">
        <ele>257.431561</ele>
        <time>2024-06-01T07:42:59.000Z</time>
      </trkpt>
      <trkpt lat="36.009321" lon="-84.282111">
        <ele>256.996887</ele>
        <time>2024-06-01T07:43:05.000Z</time>
      </trkpt>
      <trkpt lat="36.008941" lon="-84.28224">
        <ele>256.652431</ele>
        <time>2024-06-01T07:43:09.000Z</time>
      </trkpt>
      <trkpt lat="36.007777" lon="-84.282237">
        <ele>255.629571</ele>
        <time>2024-06-01T07:43:22.000Z</time>
      </trkpt>
      <trkpt lat="36.007133" lon="-84.282026">
        <ele>255.044979</ele>
        <time>2024-06-01T07:43:29.000Z</time>
      </trkpt>
      <trkpt lat="36.006449" lon="-84.281761">
        <ele>255.021406</ele>
        <time>2024-06-01T07:43:37.000Z</time>
      </trkpt>
      <trkpt lat="36.006266" lon="-84.281659">
        <ele>255.014424</ele>
        <time>2024-06-01T07:43:39.000Z</time>
      </trkpt>
      <trkpt lat="36.005833" lon="-84.281435">
        <ele>254.999099</ele>
        <time>2024-06-01T07:43:44.000Z</time>
      </trkpt>
      <trkpt lat="36.005621" lon="-84.282073">
        <ele>254.986757</ele>
        <time>2024-06-01T07:43:50.000Z</time>
      </trkpt>
      <trkpt lat="36.005645" lon="-84.282235">
        <ele>254.987779</ele>
        <time>2024-06-01T07:43:51.000Z</time>
      </trkpt>
      <trkpt lat="36.005456" lon="-84.282836">
        <ele>254.991879</ele>
        <time>2024-06-01T07:43:57.000Z</time>
      </trkpt>
      <trkpt lat="36.004991" lon="-84.28431">
        <ele>255</ele>
        <time>2024-06-01T07:44:11.000Z</time>
      </trkpt>
      <trkpt lat="36.004532" lon="-84.285587">
        <ele>254.999994</ele>
        <time>2024-06-01T07:44:24.000Z</time>
      </trkpt>
      <trkpt lat="36.003942" lon="-84.287003">
        <ele>255.040452</ele>
        <time>2024-06-01T07:44:38.000Z</time>
      </trkpt>
      <trkpt lat="36.003597" lon="-84.287725">
        <ele>255.071218</ele>
        <time>2024-06-01T07:44:46.000Z</time>
      </trkpt>
      <trkpt lat="36.002981" lon="-84.288993">
        <ele>255.069077</ele>
        <time>2024-06-01T07:44:59.000Z</time>
      </trkpt>
      <trkpt lat="36.002447" lon="-84.289966">
        <ele>255.032199</ele>
        <time>2024-06-01T07:45:10.000Z</time>
      </trkpt>
      <trkpt lat="36.001509" lon="-84.291574">
        <ele>254.695891</ele>
        <time>2024-06-01T07:45:28.000Z</time>
      </trkpt>
      <trkpt lat="36.001088" lon="-84.292349">
        <ele>254.580328</ele>
        <time>2024-06-01T07:45:36.000Z</time>
      </trkpt>
      <trkpt lat="36.000822" lon="-84.292973">
        <ele>254.493647</ele>
        <time>2024-06-01T07:45:42.000Z</time>
      </trkpt>
      <trkpt lat="36.000652" lon="-84.293509">
        <ele>254.423486</ele>
        <time>2024-06-01T07:45:47.000Z</time>
      </trkpt>
      <trkpt lat="36.0005" lon="-84.294092">
        <ele>254.18979</ele>
        <time>2024-06-01T07:45:53.000Z</time>
      </trkpt>
      <trkpt lat="36.000422" lon="-84.294496">
        <ele>254.013825</ele>
        <time>2024-06-01T07:45:57.000Z</time>
      </trkpt>
      <trkpt lat="36.000336" lon="-84.295074">
        <ele>253.765766</ele>
        <time>2024-06-01T07:46:02.000Z</time>
      </trkpt>
      <trkpt lat="36.000303" lon="-84.295978">
        <ele>253.305602</ele>
        <time>2024-06-01T07:46:10.000Z</time>
      </trkpt>
      <trkpt lat="36.000364" lon="-84.297089">
        <ele>252.432911</ele>
        <time>2024-06-01T07:46:20.000Z</time>
      </trkpt>
      <trkpt lat="36.000428" lon="-84.298064">
        <ele>251.690359</ele>
        <time>2024-06-01T07:46:29.000Z</time>
      </trkpt>
      <trkpt lat="36.000455" lon="-84.298841">
        <ele>251.512606</ele>
        <time>2024-06-01T07:46:36.000Z</time>
      </trkpt>
      <trkpt lat="36.000411" lon="-84.299601">
        <ele>251.336944</ele>
        <time>2024-06-01T07:46:43.000Z</time>
      </trkpt>
      <trkpt lat="36.000303" lon="-84.30029">
        <ele>251.174675</ele>
        <time>2024-06-01T07:46:49.000Z</time>
      </trkpt>
      <trkpt lat="36.000158" lon="-84.301039">
        <ele>250.985756</ele>
        <time>2024-06-01T07:46:56.000Z</time>
      </trkpt>
      <trkpt lat="36.000009" lon="-84.301512">
        <ele>250.862259</ele>
        <time>2024-06-01T07:47:01.000Z</time>
      </trkpt>
      <trkpt lat="35.999597" lon="-84.302509">
        <ele>250.532756</ele>
        <time>2024-06-01T07:47:11.000Z</time>
      </trkpt>
      <trkpt lat="35.999205" lon="-84.303196">
        <ele>250.130049</ele>
        <time>2024-06-01T07:47:19.000Z</time>
      </trkpt>
      <trkpt lat="35.998788" lon="-84.303789">
        <ele>249.753254</ele>
        <time>2024-06-01T07:47:26.000Z</time>
      </trkpt>
      <trkpt lat="35.998573" lon="-84.304049">
        <ele>249.589388</ele>
        <time>2024-06-01T07:47:29.000Z</time>
      </trkpt>
      <trkpt lat="35.998035" lon="-84.304605">
        <ele>249.39339</ele>
        <time>2024-06-01T07:47:37.000Z</time>
      </trkpt>
      <trkpt lat="35.997443" lon="-84.305129">
        <ele>249.191964</ele>
        <time>2024-06-01T07:47:45.000Z</time>
      </trkpt>
      <trkpt lat="35.995993" lon="-84.306406">
        <ele>248.97446</ele>
        <time>2024-06-01T07:48:05.000Z</time>
      </trkpt>
      <trkpt lat="35.995768" lon="-84.306652">
        <ele>248.947716</ele>
        <time>2024-06-01T07:48:08.000Z</time>
      </trkpt>
      <trkpt lat="35.995467" lon="-84.307041">
        <ele>248.934885</ele>
        <time>2024-06-01T07:48:13.000Z</time>
      </trkpt>
      <trkpt lat="35.995031" lon="-84.307693">
        <ele>248.919708</ele>
        <time>2024-06-01T07:48:21.000Z</time>
      </trkpt>
      <trkpt lat="35.994657" lon="-84.308513">
        <ele>248.90186</ele>
        <time>2024-06-01T07:48:29.000Z</time>
      </trkpt>
      <trkpt lat="35.99444" lon="-84.309202">
        <ele>248.873098</ele>
        <time>2024-06-01T07:48:36.000Z</time>
      </trkpt>
      <trkpt lat="35.994292" lon="-84.309969">
        <ele>248.842662</ele>
        <time>2024-06-01T07:48:43.000Z</time>
      </trkpt>
      <trkpt lat="35.994186" lon="-84.310902">
        <ele>248.648988</ele>
        <time>2024-06-01T07:48:51.000Z</time>
      </trkpt>
      <trkpt lat="35.99406" lon="-84.312073">
        <ele>247.920591</ele>
        <time>2024-06-01T07:49:02.000Z</time>
      </trkpt>
      <trkpt lat="35.99387" lon="-84.313879">
        <ele>247.391676</ele>
        <time>2024-06-01T07:49:18.000Z</time>
      </trkpt>
      <trkpt lat="35.993599" lon="-84.315935">
        <ele>247.799947</ele>
        <time>2024-06-01T07:49:37.000Z</time>
      </trkpt>
      <trkpt lat="35.993384" lon="-84.316925">
        <ele>248.328876</ele>
        <time>2024-06-01T07:49:46.000Z</time>
      </trkpt>
      <trkpt lat="35.993035" lon="-84.317984">
        <ele>247.992175</ele>
        <time>2024-06-01T07:49:56.000Z</time>
      </trkpt>
      <trkpt lat="35.992865" lon="-84.318398">
        <ele>247.726173</ele>
        <time>2024-06-01T07:50:00.000Z</time>
      </trkpt>
      <trkpt lat="35.992616" lon="-84.318902">
        <ele>247.401416</ele>
        <time>2024-06-01T07:50:05.000Z</time>
      </trkpt>
      <trkpt lat="35.992155" lon="-84.319739">
        <ele>247.116832</ele>
        <time>2024-06-01T07:50:14.000Z</time>
      </trkpt>
      <trkpt lat="35.991903" lon="-84.320199">
        <ele>247.034375</ele>
        <time>2024-06-01T07:50:19.000Z</time>
      </trkpt>
      <trkpt lat="35.99123" lon="-84.321055">
        <ele>247.194233</ele>
        <time>2024-06-01T07:50:30.000Z</time>
      </trkpt>
      <trkpt lat="35.990797" lon="-84.321491">
        <ele>248.13005</ele>
        <time>2024-06-01T07:50:36.000Z</time>
      </trkpt>
      <trkpt lat="35.99031" lon="-84.321912">
        <ele>249.11706</ele>
        <time>2024-06-01T07:50:43.000Z</time>
      </trkpt>
      <trkpt lat="35.988835" lon="-84.322993">
        <ele>251.249384</ele>
        <time>2024-06-01T07:51:02.000Z</time>
      </trkpt>
      <trkpt lat="35.988747" lon="-84.323072">
        <ele>251.372521</ele>
        <time>2024-06-01T07:51:03.000Z</time>
      </trkpt>
      <trkpt lat="35.988482" lon="-84.323271">
        <ele>251.714995</ele>
        <time>2024-06-01T07:51:06.000Z</time>
      </trkpt>
      <trkpt lat="35.987422" lon="-84.324214">
        <ele>250.308729</ele>
        <time>2024-06-01T07:51:21.000Z</time>
      </trkpt>
      <trkpt lat="35.986945" lon="-84.32468">
        <ele>249.528964</ele>
        <time>2024-06-01T07:51:28.000Z</time>
      </trkpt>
      <trkpt lat="35.986479" lon="-84.3252">
        <ele>247.856373</ele>
        <time>2024-06-01T07:51:35.000Z</time>
      </trkpt>
      <trkpt lat="35.986089" lon="-84.325714">
        <ele>246.329797</ele>
        <time>2024-06-01T07:51:41.000Z</time>
      </trkpt>
      <trkpt lat="35.9857" lon="-84.326284">
        <ele>244.685687</ele>
        <time>2024-06-01T07:51:48.000Z</time>
      </trkpt>
      <trkpt lat="35.985578" lon="-84.326487">
        <ele>244.415476</ele>
        <time>2024-06-01T07:51:50.000Z</time>
      </trkpt>
      <trkpt lat="35.984974" lon="-84.327353">
        <ele>243.259591</ele>
        <time>2024-06-01T07:52:00.000Z</time>
      </trkpt>
      <trkpt lat="35.98448" lon="-84.328031">
        <ele>242.473035</ele>
        <time>2024-06-01T07:52:08.000Z</time>
      </trkpt>
      <trkpt lat="35.984412" lon="-84.328118">
        <ele>242.586743</ele>
        <time>2024-06-01T07:52:09.000Z</time>
      </trkpt>
      <trkpt lat="35.983818" lon="-84.329009">
        <ele>243.584467</ele>
        <time>2024-06-01T07:52:19.000Z</time>
      </trkpt>
      <trkpt lat="35.983442" lon="-84.329568">
        <ele>244.207862</ele>
        <time>2024-06-01T07:52:26.000Z</time>
      </trkpt>
      <trkpt lat="35.982587" lon="-84.330789">
        <ele>243.897615</ele>
        <time>2024-06-01T07:52:41.000Z</time>
      </trkpt>
      <trkpt lat="35.982536" lon="-84.330879">
        <ele>243.868356</ele>
        <time>2024-06-01T07:52:42.000Z</time>
      </trkpt>
      <trkpt lat="35.981673" lon="-84.33209">
        <ele>242.57481</ele>
        <time>2024-06-01T07:52:57.000Z</time>
      </trkpt>
      <trkpt lat="35.981476" lon="-84.332384">
        <ele>242.138842</ele>
        <time>2024-06-01T07:53:00.000Z</time>
      </trkpt>
      <trkpt lat="35.980895" lon="-84.333163">
        <ele>241.291503</ele>
        <time>2024-06-01T07:53:10.000Z</time>
      </trkpt>
      <trkpt lat="35.980497" lon="-84.333748">
        <ele>241.911722</ele>
        <time>2024-06-01T07:53:17.000Z</time>
      </trkpt>
      <trkpt lat="35.980105" lon="-84.33433">
        <ele>242.51883</ele>
        <time>2024-06-01T07:53:24.000Z</time>
      </trkpt>
      <trkpt lat="35.979729" lon="-84.334932">
        <ele>243.124231</ele>
        <time>2024-06-01T07:53:31.000Z</time>
      </trkpt>
      <trkpt lat="35.979328" lon="-84.33563">
        <ele>243.785422</ele>
        <time>2024-06-01T07:53:39.000Z</time>
      </trkpt>
      <trkpt lat="35.97892" lon="-84.336088">
        <ele>244.306614</ele>
        <time>2024-06-01T07:53:45.000Z</time>
      </trkpt>
      <trkpt lat="35.978429" lon="-84.336553">
        <ele>244.285049</ele>
        <time>2024-06-01T07:53:52.000Z</time>
      </trkpt>
      <trkpt lat="35.9781" lon="-84.336708">
        <ele>243.818639</ele>
        <time>2024-06-01T07:53:56.000Z</time>
      </trkpt>
      <trkpt lat="35.977128" lon="-84.337305">
        <ele>242.355603</ele>
        <time>2024-06-01T07:54:08.000Z</time>
      </trkpt>
      <trkpt lat="35.976361" lon="-84.337743">
        <ele>241.579266</ele>
        <time>2024-06-01T07:54:17.000Z</time>
      </trkpt>
      <trkpt lat="35.975681" lon="-84.33815">
        <ele>240.917195</ele>
        <time>2024-06-01T07:54:25.000Z</time>
      </trkpt>
      <trkpt lat="35.975023" lon="-84.338598">
        <ele>240.675645</ele>
        <time>2024-06-01T07:54:33.000Z</time>
      </trkpt>
      <trkpt lat="35.974618" lon="-84.338971">
        <ele>240.687878</ele>
        <time>2024-06-01T07:54:39.000Z</time>
      </trkpt>
      <trkpt lat="35.974125" lon="-84.339446">
        <ele>240.703319</ele>
        <time>2024-06-01T07:54:46.000Z</time>
      </trkpt>
      <trkpt lat="35.973602" lon="-84.340065">
        <ele>240.436917</ele>
        <time>2024-06-01T07:54:54.000Z</time>
      </trkpt>
      <trkpt lat="35.973269" lon="-84.340551">
        <ele>240.155953</ele>
        <time>2024-06-01T07:55:00.000Z</time>
      </trkpt>
      <trkpt lat="35.972679" lon="-84.34155">
        <ele>239.557889</ele>
        <time>2024-06-01T07:55:11.000Z</time>
      </trkpt>
      <trkpt lat="35.972238" lon="-84.342282">
        <ele>238.941856</ele>
        <time>2024-06-01T07:55:19.000Z</time>
      </trkpt>
      <trkpt lat="35.971814" lon="-84.343121">
        <ele>238.269374</ele>
        <time>2024-06-01T07:55:28.000Z</time>
      </trkpt>
      <trkpt lat="35.97079" lon="-84.344987">
        <ele>236.667936</ele>
        <time>2024-06-01T07:55:48.000Z</time>
      </trkpt>
      <trkpt lat="35.970133" lon="-84.346201">
        <ele>236.773482</ele>
        <time>2024-06-01T07:56:01.000Z</time>
      </trkpt>
      <trkpt lat="35.969927" lon="-84.346568">
        <ele>236.809345</ele>
        <time>2024-06-01T07:56:05.000Z</time>
      </trkpt>
      <trkpt lat="35.969219" lon="-84.347833">
        <ele>238.167427</ele>
        <time>2024-06-01T07:56:19.000Z</time>
      </trkpt>
      <trkpt lat="35.968876" lon="-84.348376">
        <ele>238.928128</ele>
        <time>2024-06-01T07:56:25.000Z</time>
      </trkpt>
      <trkpt lat="35.968417" lon="-84.348898">
        <ele>239.538856</ele>
        <time>2024-06-01T07:56:32.000Z</time>
      </trkpt>
      <trkpt lat="35.968293" lon="-84.349025">
        <ele>239.657657</ele>
        <time>2024-06-01T07:56:34.000Z</time>
      </trkpt>
      <trkpt lat="35.967671" lon="-84.349503">
        <ele>240.202283</ele>
        <time>2024-06-01T07:56:42.000Z</time>
      </trkpt>
      <trkpt lat="35.966675" lon="-84.350147">
        <ele>240.263909</ele>
        <time>2024-06-01T07:56:54.000Z</time>
      </trkpt>
      <trkpt lat="35.966301" lon="-84.350492">
        <ele>239.988888</ele>
        <time>2024-06-01T07:56:59.000Z</time>
      </trkpt>
      <trkpt lat="35.9661" lon="-84.350697">
        <ele>239.844685</ele>
        <time>2024-06-01T07:57:02.000Z</time>
      </trkpt>
      <trkpt lat="35.965822" lon="-84.351084">
        <ele>239.603004</ele>
        <time>2024-06-01T07:57:07.000Z</time>
      </trkpt>
      <trkpt lat="35.965557" lon="-84.351553">
        <ele>239.487842</ele>
        <time>2024-06-01T07:57:12.000Z</time>
      </trkpt>
      <trkpt lat="35.96538" lon="-84.351958">
        <ele>239.410827</ele>
        <time>2024-06-01T07:57:16.000Z</time>
      </trkpt>
      <trkpt lat="35.964451" lon="-84.354225">
        <ele>239.599031</ele>
        <time>2024-06-01T07:57:39.000Z</time>
      </trkpt>
      <trkpt lat="35.963624" lon="-84.356273">
        <ele>240.275979</ele>
        <time>2024-06-01T07:58:00.000Z</time>
      </trkpt>
      <trkpt lat="35.963217" lon="-84.357025">
        <ele>240.514071</ele>
        <time>2024-06-01T07:58:08.000Z</time>
      </trkpt>
      <trkpt lat="35.962969" lon="-84.357406">
        <ele>240.378042</ele>
        <time>2024-06-01T07:58:12.000Z</time>
      </trkpt>
      <trkpt lat="35.962708" lon="-84.357742">
        <ele>240.257277</ele>
        <time>2024-06-01T07:58:16.000Z</time>
      </trkpt>
      <trkpt lat="35.960362" lon="-84.360304">
        <ele>239.200248</ele>
        <time>2024-06-01T07:58:51.000Z</time>
      </trkpt>
      <trkpt lat="35.959009" lon="-84.36177">
        <ele>238.737616</ele>
        <time>2024-06-01T07:59:11.000Z</time>
      </trkpt>
      <trkpt lat="35.958423" lon="-84.36226">
        <ele>238.247229</ele>
        <time>2024-06-01T07:59:19.000Z</time>
      </trkpt>
      <trkpt lat="35.957861" lon="-84.362662">
        <ele>237.803889</ele>
        <time>2024-06-01T07:59:26.000Z</time>
      </trkpt>
      <trkpt lat="35.957167" lon="-84.363073">
        <ele>236.976516</ele>
        <time>2024-06-01T07:59:35.000Z</time>
      </trkpt>
      <trkpt lat="35.956422" lon="-84.363388">
        <ele>236.08614</ele>
        <time>2024-06-01T07:59:44.000Z</time>
      </trkpt>
      <trkpt lat="35.955799" lon="-84.363583">
        <ele>235.288364</ele>
        <time>2024-06-01T07:59:51.000Z</time>
      </trkpt>
      <trkpt lat="35.955424" lon="-84.363666">
        <ele>234.756416</ele>
        <time>2024-06-01T07:59:55.000Z</time>
      </trkpt>
      <trkpt lat="35.95483" lon="-84.363753">
        <ele>233.939176</ele>
        <time>2024-06-01T08:00:02.000Z</time>
      </trkpt>
      <trkpt lat="35.954928" lon="-84.36389">
        <ele>233.750231</ele>
        <time>2024-06-01T08:00:04.000Z</time>
      </trkpt>
      <trkpt lat="35.95498" lon="-84.364726">
        <ele>233.003898</ele>
        <time>2024-06-01T08:00:12.000Z</time>
      </trkpt>
      <trkpt lat="35.955011" lon="-84.365072">
        <ele>232.802378</ele>
        <time>2024-06-01T08:00:15.000Z</time>
      </trkpt>
      <trkpt lat="35.955076" lon="-84.365057">
        <ele>232.758666</ele>
        <time>2024-06-01T08:00:16.000Z</time>
      </trkpt>
      <trkpt lat="35.955096" lon="-84.365129">
        <ele>232.718826</ele>
        <time>2024-06-01T08:00:17.000Z</time>
      </trkpt>
      <trkpt lat="35.955109" lon="-84.36525">
        <ele>232.652548</ele>
        <time>2024-06-01T08:00:18.000Z</time>
      </trkpt>
      <trkpt lat="35.955214" lon="-84.365632">
        <ele>232.427892</ele>
        <time>2024-06-01T08:00:22.000Z</time>
      </trkpt>
      <trkpt lat="35.955308" lon="-84.365899">
        <ele>232.267064</ele>
        <time>2024-06-01T08:00:25.000Z</time>
      </trkpt>
      <trkpt lat="35.955214" lon="-84.365632">
        <ele>232.106223</ele>
        <time>2024-06-01T08:00:28.000Z</time>
      </trkpt>
      <trkpt lat="35.955112" lon="-84.365258">
        <ele>232.063774</ele>
        <time>2024-06-01T08:00:32.000Z</time>
      </trkpt>
      <trkpt lat="35.955093" lon="-84.365133">
        <ele>232.183373</ele>
        <time>2024-06-01T08:00:33.000Z</time>
      </trkpt>
      <trkpt lat="35.955068" lon="-84.365059">
        <ele>232.255287</ele>
        <time>2024-06-01T08:00:34.000Z</time>
      </trkpt>
      <trkpt lat="35.955018" lon="-84.365089">
        <ele>232.334182</ele>
        <time>2024-06-01T08:00:35.000Z</time>
      </trkpt>
      <trkpt lat="35.955032" lon="-84.365209">
        <ele>232.469368</ele>
        <time>2024-06-01T08:00:36.000Z</time>
      </trkpt>
      <trkpt lat="35.95492" lon="-84.365242">
        <ele>232.611731</ele>
        <time>2024-06-01T08:00:37.000Z</time>
      </trkpt>
      <trkpt lat="35.954901" lon="-84.365115">
        <ele>232.747895</ele>
        <time>2024-06-01T08:00:38.000Z</time>
      </trkpt>
      <trkpt lat="35.954803" lon="-84.363917">
        <ele>233.952823</ele>
        <time>2024-06-01T08:00:49.000Z</time>
      </trkpt>
      <trkpt lat="35.954844" lon="-84.363753">
        <ele>234.12194</ele>
        <time>2024-06-01T08:00:51.000Z</time>
      </trkpt>
      <trkpt lat="35.954819" lon="-84.363535">
        <ele>234.401032</ele>
        <time>2024-06-01T08:00:53.000Z</time>
      </trkpt>
      <trkpt lat="35.955349" lon="-84.36344">
        <ele>235.242209</ele>
        <time>2024-06-01T08:00:59.000Z</time>
      </trkpt>
      <trkpt lat="35.956077" lon="-84.363239">
        <ele>236.458945</ele>
        <time>2024-06-01T08:01:07.000Z</time>
      </trkpt>
      <trkpt lat="35.957019" lon="-84.362869">
        <ele>237.931568</ele>
        <time>2024-06-01T08:01:18.000Z</time>
      </trkpt>
      <trkpt lat="35.957776" lon="-84.362451">
        <ele>239.077387</ele>
        <time>2024-06-01T08:01:27.000Z</time>
      </trkpt>
      <trkpt lat="35.958315" lon="-84.362052">
        <ele>239.746988</ele>
        <time>2024-06-01T08:01:34.000Z</time>
      </trkpt>
      <trkpt lat="35.95878" lon="-84.361671">
        <ele>240.037316</ele>
        <time>2024-06-01T08:01:40.000Z</time>
      </trkpt>
      <trkpt lat="35.959249" lon="-84.361209">
        <ele>240.356146</ele>
        <time>2024-06-01T08:01:47.000Z</time>
      </trkpt>
      <trkpt lat="35.960232" lon="-84.360137">
        <ele>240.291115</ele>
        <time>2024-06-01T08:02:02.000Z</time>
      </trkpt>
      <trkpt lat="35.961432" lon="-84.358823">
        <ele>240.440943</ele>
        <time>2024-06-01T08:02:20.000Z</time>
      </trkpt>
      <trkpt lat="35.962588" lon="-84.357558">
        <ele>241.280076</ele>
        <time>2024-06-01T08:02:37.000Z</time>
      </trkpt>
      <trkpt lat="35.962869" lon="-84.357167">
        <ele>241.51649</ele>
        <time>2024-06-01T08:02:42.000Z</time>
      </trkpt>
      <trkpt lat="35.963223" lon="-84.35658">
        <ele>241.847165</ele>
        <time>2024-06-01T08:02:49.000Z</time>
      </trkpt>
      <trkpt lat="35.963405" lon="-84.356213">
        <ele>241.996264</ele>
        <time>2024-06-01T08:02:53.000Z</time>
      </trkpt>
      <trkpt lat="35.964282" lon="-84.354097">
        <ele>240.842602</ele>
        <time>2024-06-01T08:03:14.000Z</time>
      </trkpt>
      <trkpt lat="35.965215" lon="-84.351732">
        <ele>241.050392</ele>
        <time>2024-06-01T08:03:38.000Z</time>
      </trkpt>
      <trkpt lat="35.965473" lon="-84.351219">
        <ele>241.437301</ele>
        <time>2024-06-01T08:03:43.000Z</time>
      </trkpt>
      <trkpt lat="35.965718" lon="-84.350839">
        <ele>241.745481</ele>
        <time>2024-06-01T08:03:47.000Z</time>
      </trkpt>
      <trkpt lat="35.96598" lon="-84.350527">
        <ele>242.021409</ele>
        <time>2024-06-01T08:03:51.000Z</time>
      </trkpt>
      <trkpt lat="35.966045" lon="-84.35042">
        <ele>242.0633</ele>
        <time>2024-06-01T08:03:52.000Z</time>
      </trkpt>
      <trkpt lat="35.966482" lon="-84.350009">
        <ele>242.033349</ele>
        <time>2024-06-01T08:03:58.000Z</time>
      </trkpt>
      <trkpt lat="35.968047" lon="-84.348931">
        <ele>241.141449</ele>
        <time>2024-06-01T08:04:18.000Z</time>
      </trkpt>
      <trkpt lat="35.968397" lon="-84.348603">
        <ele>240.534474</ele>
        <time>2024-06-01T08:04:23.000Z</time>
      </trkpt>
      <trkpt lat="35.968711" lon="-84.348212">
        <ele>239.918913</ele>
        <time>2024-06-01T08:04:28.000Z</time>
      </trkpt>
      <trkpt lat="35.968971" lon="-84.347869">
        <ele>239.398872</ele>
        <time>2024-06-01T08:04:32.000Z</time>
      </trkpt>
      <trkpt lat="35.969744" lon="-84.346447">
        <ele>237.241633</ele>
        <time>2024-06-01T08:04:47.000Z</time>
      </trkpt>
      <trkpt lat="35.969948" lon="-84.346069">
        <ele>236.68748</ele>
        <time>2024-06-01T08:04:51.000Z</time>
      </trkpt>
      <trkpt lat="35.970652" lon="-84.34486">
        <ele>236.53891</ele>
        <time>2024-06-01T08:05:04.000Z</time>
      </trkpt>
      <trkpt lat="35.972602" lon="-84.341489">
        <ele>238.999058</ele>
        <time>2024-06-01T08:05:41.000Z</time>
      </trkpt>
      <trkpt lat="35.973146" lon="-84.340511">
        <ele>239.788212</ele>
        <time>2024-06-01T08:05:52.000Z</time>
      </trkpt>
      <trkpt lat="35.973927" lon="-84.339495">
        <ele>240.041838</ele>
        <time>2024-06-01T08:06:05.000Z</time>
      </trkpt>
      <trkpt lat="35.974582" lon="-84.338829">
        <ele>240.141559</ele>
        <time>2024-06-01T08:06:14.000Z</time>
      </trkpt>
      <trkpt lat="35.975073" lon="-84.338435">
        <ele>240.111906</ele>
        <time>2024-06-01T08:06:21.000Z</time>
      </trkpt>
      <trkpt lat="35.975635" lon="-84.338035">
        <ele>240.080083</ele>
        <time>2024-06-01T08:06:28.000Z</time>
      </trkpt>
      <trkpt lat="35.976334" lon="-84.337633">
        <ele>240.889398</ele>
        <time>2024-06-01T08:06:37.000Z</time>
      </trkpt>
      <trkpt lat="35.978391" lon="-84.336439">
        <ele>243.706213</ele>
        <time>2024-06-01T08:07:02.000Z</time>
      </trkpt>
      <trkpt lat="35.978873" lon="-84.335977">
        <ele>244.229255</ele>
        <time>2024-06-01T08:07:09.000Z</time>
      </trkpt>
      <trkpt lat="35.979251" lon="-84.335524">
        <ele>243.948023</ele>
        <time>2024-06-01T08:07:15.000Z</time>
      </trkpt>
      <trkpt lat="35.979652" lon="-84.334852">
        <ele>243.106057</ele>
        <time>2024-06-01T08:07:23.000Z</time>
      </trkpt>
      <trkpt lat="35.980039" lon="-84.334237">
        <ele>242.311744</ele>
        <time>2024-06-01T08:07:30.000Z</time>
      </trkpt>
      <trkpt lat="35.981358" lon="-84.332295">
        <ele>241.321758</ele>
        <time>2024-06-01T08:07:53.000Z</time>
      </trkpt>
      <trkpt lat="35.983317" lon="-84.329431">
        <ele>242.665323</ele>
        <time>2024-06-01T08:08:27.000Z</time>
      </trkpt>
      <trkpt lat="35.983706" lon="-84.328886">
        <ele>242.808158</ele>
        <time>2024-06-01T08:08:34.000Z</time>
      </trkpt>
      <trkpt lat="35.984866" lon="-84.327237">
        <ele>242.887342</ele>
        <time>2024-06-01T08:08:54.000Z</time>
      </trkpt>
      <trkpt lat="35.985688" lon="-84.326034">
        <ele>245.563894</ele>
        <time>2024-06-01T08:09:08.000Z</time>
      </trkpt>
      <trkpt lat="35.986009" lon="-84.32561">
        <ele>246.565804</ele>
        <time>2024-06-01T08:09:13.000Z</time>
      </trkpt>
      <trkpt lat="35.986892" lon="-84.324525">
        <ele>249.646106</ele>
        <time>2024-06-01T08:09:27.000Z</time>
      </trkpt>
      <trkpt lat="35.988103" lon="-84.323356">
        <ele>251.524633</ele>
        <time>2024-06-01T08:09:44.000Z</time>
      </trkpt>
      <trkpt lat="35.988719" lon="-84.322883">
        <ele>251.967755</ele>
        <time>2024-06-01T08:09:52.000Z</time>
      </trkpt>
      <trkpt lat="35.988764" lon="-84.322842">
        <ele>251.990641</ele>
        <time>2024-06-01T08:09:53.000Z</time>
      </trkpt>
      <trkpt lat="35.99003" lon="-84.321957">
        <ele>249.229565</ele>
        <time>2024-06-01T08:10:09.000Z</time>
      </trkpt>
      <trkpt lat="35.990233" lon="-84.32178">
        <ele>248.751359</ele>
        <time>2024-06-01T08:10:12.000Z</time>
      </trkpt>
      <trkpt lat="35.99067" lon="-84.321361">
        <ele>247.878858</ele>
        <time>2024-06-01T08:10:18.000Z</time>
      </trkpt>
      <trkpt lat="35.991381" lon="-84.320594">
        <ele>246.423827</ele>
        <time>2024-06-01T08:10:28.000Z</time>
      </trkpt>
      <trkpt lat="35.991669" lon="-84.320221">
        <ele>245.843424</ele>
        <time>2024-06-01T08:10:33.000Z</time>
      </trkpt>
      <trkpt lat="35.99206" lon="-84.319624">
        <ele>246.37415</ele>
        <time>2024-06-01T08:10:40.000Z</time>
      </trkpt>
      <trkpt lat="35.99254" lon="-84.318794">
        <ele>247.077003</ele>
        <time>2024-06-01T08:10:49.000Z</time>
      </trkpt>
      <trkpt lat="35.992811" lon="-84.31826">
        <ele>247.346564</ele>
        <time>2024-06-01T08:10:55.000Z</time>
      </trkpt>
      <trkpt lat="35.99293" lon="-84.317932">
        <ele>247.332824</ele>
        <time>2024-06-01T08:10:58.000Z</time>
      </trkpt>
      <trkpt lat="35.993132" lon="-84.317378">
        <ele>247.310173</ele>
        <time>2024-06-01T08:11:03.000Z</time>
      </trkpt>
      <trkpt lat="35.993484" lon="-84.315905">
        <ele>247.03454</ele>
        <time>2024-06-01T08:11:17.000Z</time>
      </trkpt>
      <trkpt lat="35.993628" lon="-84.314929">
        <ele>246.566203</ele>
        <time>2024-06-01T08:11:26.000Z</time>
      </trkpt>
      <trkpt lat="35.993745" lon="-84.313827">
        <ele>246.504529</ele>
        <time>2024-06-01T08:11:36.000Z</time>
      </trkpt>
      <trkpt lat="35.993931" lon="-84.312123">
        <ele>247.804175</ele>
        <time>2024-06-01T08:11:51.000Z</time>
      </trkpt>
      <trkpt lat="35.994001" lon="-84.311395">
        <ele>248.129214</ele>
        <time>2024-06-01T08:11:58.000Z</time>
      </trkpt>
      <trkpt lat="35.994043" lon="-84.310872">
        <ele>248.323482</ele>
        <time>2024-06-01T08:12:03.000Z</time>
      </trkpt>
      <trkpt lat="35.994258" lon="-84.30936">
        <ele>248.681791</ele>
        <time>2024-06-01T08:12:17.000Z</time>
      </trkpt>
      <trkpt lat="35.994436" lon="-84.308762">
        <ele>248.625801</ele>
        <time>2024-06-01T08:12:23.000Z</time>
      </trkpt>
      <trkpt lat="35.994554" lon="-84.308438">
        <ele>248.595168</ele>
        <time>2024-06-01T08:12:26.000Z</time>
      </trkpt>
      <trkpt lat="35.99475" lon="-84.307904">
        <ele>248.545024</ele>
        <time>2024-06-01T08:12:31.000Z</time>
      </trkpt>
      <trkpt lat="35.995266" lon="-84.307061">
        <ele>248.571569</ele>
        <time>2024-06-01T08:12:41.000Z</time>
      </trkpt>
      <trkpt lat="35.995359" lon="-84.306907">
        <ele>248.581334</ele>
        <time>2024-06-01T08:12:43.000Z</time>
      </trkpt>
      <trkpt lat="35.995883" lon="-84.306294">
        <ele>248.626305</ele>
        <time>2024-06-01T08:12:51.000Z</time>
      </trkpt>
      <trkpt lat="35.997368" lon="-84.304984">
        <ele>248.913848</ele>
        <time>2024-06-01T08:13:11.000Z</time>
      </trkpt>
      <trkpt lat="35.997569" lon="-84.304808">
        <ele>248.969767</ele>
        <time>2024-06-01T08:13:14.000Z</time>
      </trkpt>
      <trkpt lat="35.998054" lon="-84.304369">
        <ele>249.228535</ele>
        <time>2024-06-01T08:13:21.000Z</time>
      </trkpt>
      <trkpt lat="35.998499" lon="-84.303918">
        <ele>249.484592</ele>
        <time>2024-06-01T08:13:27.000Z</time>
      </trkpt>
      <trkpt lat="35.998944" lon="-84.303331">
        <ele>249.771292</ele>
        <time>2024-06-01T08:13:34.000Z</time>
      </trkpt>
      <trkpt lat="35.999228" lon="-84.302885">
        <ele>250.010229</ele>
        <time>2024-06-01T08:13:39.000Z</time>
      </trkpt>
      <trkpt lat="35.999525" lon="-84.302301">
        <ele>250.309574</ele>
        <time>2024-06-01T08:13:45.000Z</time>
      </trkpt>
      <trkpt lat="35.999849" lon="-84.301535">
        <ele>250.671406</ele>
        <time>2024-06-01T08:13:53.000Z</time>
      </trkpt>
      <trkpt lat="36.000028" lon="-84.300998">
        <ele>250.764663</ele>
        <time>2024-06-01T08:13:58.000Z</time>
      </trkpt>
      <trkpt lat="36.000158" lon="-84.300324">
        <ele>250.869388</ele>
        <time>2024-06-01T08:14:04.000Z</time>
      </trkpt>
      <trkpt lat="36.000297" lon="-84.299214">
        <ele>251.112627</ele>
        <time>2024-06-01T08:14:14.000Z</time>
      </trkpt>
      <trkpt lat="36.000322" lon="-84.298625">
        <ele>251.425827</ele>
        <time>2024-06-01T08:14:19.000Z</time>
      </trkpt>
      <trkpt lat="36.000298" lon="-84.298069">
        <ele>251.727049</ele>
        <time>2024-06-01T08:14:24.000Z</time>
      </trkpt>
      <trkpt lat="36.000231" lon="-84.297088">
        <ele>252.274104</ele>
        <time>2024-06-01T08:14:33.000Z</time>
      </trkpt>
      <trkpt lat="36.000176" lon="-84.2961">
        <ele>253.002638</ele>
        <time>2024-06-01T08:14:42.000Z</time>
      </trkpt>
      <trkpt lat="36.000173" lon="-84.295631">
        <ele>253.344908</ele>
        <time>2024-06-01T08:14:46.000Z</time>
      </trkpt>
      <trkpt lat="36.000218" lon="-84.295074">
        <ele>253.766325</ele>
        <time>2024-06-01T08:14:51.000Z</time>
      </trkpt>
      <trkpt lat="36.000324" lon="-84.294329">
        <ele>253.986587</ele>
        <time>2024-06-01T08:14:58.000Z</time>
      </trkpt>
      <trkpt lat="36.000485" lon="-84.293651">
        <ele>254.132958</ele>
        <time>2024-06-01T08:15:04.000Z</time>
      </trkpt>
      <trkpt lat="36.000672" lon="-84.292999">
        <ele>254.274799</ele>
        <time>2024-06-01T08:15:10.000Z</time>
      </trkpt>
      <trkpt lat="36.001046" lon="-84.292132">
        <ele>254.461477</ele>
        <time>2024-06-01T08:15:19.000Z</time>
      </trkpt>
      <trkpt lat="36.0014" lon="-84.291484">
        <ele>254.609116</ele>
        <time>2024-06-01T08:15:26.000Z</time>
      </trkpt>
      <trkpt lat="36.002299" lon="-84.289861">
        <ele>254.888437</ele>
        <time>2024-06-01T08:15:44.000Z</time>
      </trkpt>
      <trkpt lat="36.003485" lon="-84.287633">
        <ele>254.999593</ele>
        <time>2024-06-01T08:16:08.000Z</time>
      </trkpt>
      <trkpt lat="36.004393" lon="-84.285515">
        <ele>255.000007</ele>
        <time>2024-06-01T08:16:30.000Z</time>
      </trkpt>
      <trkpt lat="36.00473" lon="-84.284672">
        <ele>254.999996</ele>
        <time>2024-06-01T08:16:38.000Z</time>
      </trkpt>
      <trkpt lat="36.005461" lon="-84.282402">
        <ele>254.980635</ele>
        <time>2024-06-01T08:17:00.000Z</time>
      </trkpt>
      <trkpt lat="36.005549" lon="-84.282163">
        <ele>254.974791</ele>
        <time>2024-06-01T08:17:02.000Z</time>
      </trkpt>
      <trkpt lat="36.005628" lon="-84.282081">
        <ele>254.971985</ele>
        <time>2024-06-01T08:17:03.000Z</time>
      </trkpt>
      <trkpt lat="36.005825" lon="-84.281443">
        <ele>254.956592</ele>
        <time>2024-06-01T08:17:09.000Z</time>
      </trkpt>
      <trkpt lat="36.006254" lon="-84.281652">
        <ele>255.010876</ele>
        <time>2024-06-01T08:17:14.000Z</time>
      </trkpt>
      <trkpt lat="36.00645" lon="-84.281753">
        <ele>255.064127</ele>
        <time>2024-06-01T08:17:16.000Z</time>
      </trkpt>
      <trkpt lat="36.007042" lon="-84.281988">
        <ele>255.217651</ele>
        <time>2024-06-01T08:17:23.000Z</time>
      </trkpt>
      <trkpt lat="36.007127" lon="-84.282025">
        <ele>255.243725</ele>
        <time>2024-06-01T08:17:24.000Z</time>
      </trkpt>
      <trkpt lat="36.007773" lon="-84.282241">
        <ele>255.435992</ele>
        <time>2024-06-01T08:17:31.000Z</time>
      </trkpt>
      <trkpt lat="36.008924" lon="-84.282241">
        <ele>256.701317</ele>
        <time>2024-06-01T08:17:44.000Z</time>
      </trkpt>
      <trkpt lat="36.009326" lon="-84.28211">
        <ele>257.145421</ele>
        <time>2024-06-01T08:17:49.000Z</time>
      </trkpt>
      <trkpt lat="36.009783" lon="-84.28185">
        <ele>257.49261</ele>
        <time>2024-06-01T08:17:55.000Z</time>
      </trkpt>
      <trkpt lat="36.009978" lon="-84.281468">
        <ele>257.632952</ele>
        <time>2024-06-01T08:17:59.000Z</time>
      </trkpt>
      <trkpt lat="36.010126" lon="-84.280773">
        <ele>257.859993</ele>
        <time>2024-06-01T08:18:05.000Z</time>
      </trkpt>
      <trkpt lat="36.010267" lon="-84.279955">
        <ele>258.018634</ele>
        <time>2024-06-01T08:18:13.000Z</time>
      </trkpt>
      <trkpt lat="36.01043" lon="-84.279456">
        <ele>257.80459</ele>
        <time>2024-06-01T08:18:18.000Z</time>
      </trkpt>
      <trkpt lat="36.010581" lon="-84.279172">
        <ele>257.668274</ele>
        <time>2024-06-01T08:18:21.000Z</time>
      </trkpt>
      <trkpt lat="36.010944" lon="-84.278639">
        <ele>257.387695</ele>
        <time>2024-06-01T08:18:27.000Z</time>
      </trkpt>
      <trkpt lat="36.011469" lon="-84.278003">
        <ele>257.397159</ele>
        <time>2024-06-01T08:18:35.000Z</time>
      </trkpt>
      <trkpt lat="36.011664" lon="-84.277745">
        <ele>257.584907</ele>
        <time>2024-06-01T08:18:38.000Z</time>
      </trkpt>
      <trkpt lat="36.012292" lon="-84.276863">
        <ele>258.208241</ele>
        <time>2024-06-01T08:18:49.000Z</time>
      </trkpt>
      <trkpt lat="36.012479" lon="-84.276487">
        <ele>258.618506</ele>
        <time>2024-06-01T08:18:53.000Z</time>
      </trkpt>
      <trkpt lat="36.012959" lon="-84.275553">
        <ele>260.424329</ele>
        <time>2024-06-01T08:19:03.000Z</time>
      </trkpt>
      <trkpt lat="36.013135" lon="-84.275121">
        <ele>261.237135</ele>
        <time>2024-06-01T08:19:07.000Z</time>
      </trkpt>
      <trkpt lat="36.013483" lon="-84.274232">
        <ele>262.910596</ele>
        <time>2024-06-01T08:19:16.000Z</time>
      </trkpt>
      <trkpt lat="36.013864" lon="-84.272965">
        <ele>265.311238</ele>
        <time>2024-06-01T08:19:28.000Z</time>
      </trkpt>
      <trkpt lat="36.014604" lon="-84.270309">
        <ele>267.773295</ele>
        <time>2024-06-01T08:19:53.000Z</time>
      </trkpt>
      <trkpt lat="36.014721" lon="-84.269941">
        <ele>267.742372</ele>
        <time>2024-06-01T08:19:57.000Z</time>
      </trkpt>
      <trkpt lat="36.014826" lon="-84.269594">
        <ele>267.712938</ele>
        <time>2024-06-01T08:20:00.000Z</time>
      </trkpt>
      <trkpt lat="36.015097" lon="-84.268609">
        <ele>267.629722</ele>
        <time>2024-06-01T08:20:09.000Z</time>
      </trkpt>
      <trkpt lat="36.01526" lon="-84.267967">
        <ele>267.228682</ele>
        <time>2024-06-01T08:20:15.000Z</time>
      </trkpt>
      <trkpt lat="36.015345" lon="-84.267554">
        <ele>266.864635</ele>
        <time>2024-06-01T08:20:19.000Z</time>
      </trkpt>
      <trkpt lat="36.015389" lon="-84.267181">
        <ele>266.565419</ele>
        <time>2024-06-01T08:20:22.000Z</time>
      </trkpt>
      <trkpt lat="36.015428" lon="-84.266435">
        <ele>265.93837</ele>
        <time>2024-06-01T08:20:29.000Z</time>
      </trkpt>
      <trkpt lat="36.015409" lon="-84.266003">
        <ele>265.649619057</ele>
        <time>2024-06-01T08:20:33.000Z</time>
      </trkpt>
      <trkpt lat="36.015314" lon="-84.265615">
        <ele>265.379056083</ele>
        <time>2024-06-01T08:20:37.000Z</time>
      </trkpt>
      <trkpt lat="36.015191" lon="-84.265232">
        <ele>265.104022976</ele>
        <time>2024-06-01T08:20:41.000Z</time>
      </trkpt>
      <trkpt lat="36.015712" lon="-84.264816">
        <ele>264.592263114</ele>
        <time>2024-06-01T08:20:48.000Z</time>
      </trkpt>
      <trkpt lat="36.015923" lon="-84.264622">
        <ele>264.375291081</ele>
        <time>2024-06-01T08:20:51.000Z</time>
      </trkpt>
      <trkpt lat="36.016085" lon="-84.264444">
        <ele>264.196457049</ele>
        <time>2024-06-01T08:20:53.000Z</time>
      </trkpt>
      <trkpt lat="36.016172" lon="-84.26436">
        <ele>264.105372565</ele>
        <time>2024-06-01T08:20:54.000Z</time>
      </trkpt>
    </trkseg>
  </trk>
</gpx>

<!--
Performance optimized by W3 Total Cache. Learn more: https://www.boldgrid.com/w3-total-cache/?utm_source=w3tc&utm_medium=footer_comment&utm_campaign=free_plugin

Page Caching using Disk: Enhanced{w3tc_pagecache_reject_reason} 

Served from: www.aquabike.world @ 2026-05-10 17:34:39 by W3 Total Cache
-->